Terminal Aerodrome Forecast
Issued by NWS Shreveport, LA

Home | Current Version | Previous Version | Text Only | Print | Product List | Glossary On
Versions: 1 2 3 4 5 6 7 8 9 10 11 12
000
FTUS44 KSHV 281100 RRA
TAFTYR
TAF
KTYR 281143Z 2812/2912 14005KT P6SM SCT070 SCT250
     FM281500 16008KT P6SM BKN060
     FM290200 15006KT P6SM SCT250=

USA.gov is the U.S. government's official web portal to all federal, state and local government web resources and services.